Williamstown, New York
Current Conditions -  °F | °C
As of 10:54 PM on Friday 24 Oct 2014 (Local Time) from KSYR Reporting Station
Broken Clouds Broken Clouds  
Wind Chill: 42°   Ceiling: 25000
Heat Index: 46°   Visibility: 10mi
Dew Point: 38°   Wind: 7mph
Humidity: 73%   Direction: 250°WSW
Pressure: 29.92"   Gusts: NA
Location:  43.42°N, 75.89°W
Report Text: KSYR 250254Z 25006KT 10SM BKN250 08/03 A2992 RMK AO2 SLP128 T00780033 54000
Loading
Personal Weather Stations






























Interactive Weather Map
Tropical Storm Tracking
New forecast layout! Learn more

10-Day Weather Forecast

Advertisements
Track Severe Weather on mobile